createdAt,value
2023-03-31T00:00:17.367Z,25.00
2023-03-31T00:01:17.389Z,25.00
2023-03-31T00:02:17.450Z,0.00
2023-03-31T00:03:17.535Z,0.00
2023-03-31T00:04:17.634Z,0.00
2023-03-31T00:05:17.525Z,0.00
2023-03-31T00:06:17.562Z,0.00
2023-03-31T00:07:17.596Z,4.39
2023-03-31T00:08:17.643Z,22.31
2023-03-31T00:09:17.669Z,25.70
2023-03-31T00:10:18.676Z,25.87
2023-03-31T00:11:17.841Z,26.56
2023-03-31T00:12:17.789Z,24.36
2023-03-31T00:13:17.823Z,25.00
2023-03-31T00:14:17.849Z,25.49
2023-03-31T00:15:17.885Z,25.86
2023-03-31T00:16:17.955Z,26.68
2023-03-31T00:17:17.972Z,26.41
2023-03-31T00:18:18.000Z,26.52
2023-03-31T00:19:18.157Z,27.39
2023-03-31T00:20:18.077Z,28.12
2023-03-31T00:21:18.124Z,27.56
2023-03-31T00:22:18.166Z,26.22
2023-03-31T00:23:18.212Z,27.26
2023-03-31T00:24:18.258Z,27.22
2023-03-31T00:25:18.302Z,27.70
2023-03-31T00:26:18.332Z,28.08
2023-03-31T00:27:18.401Z,26.61
2023-03-31T00:28:18.404Z,27.32
2023-03-31T00:29:18.449Z,27.60
2023-03-31T00:30:18.516Z,28.32
2023-03-31T00:31:18.576Z,25.41
2023-03-31T00:32:18.563Z,26.43
2023-03-31T00:33:18.605Z,27.48
2023-03-31T00:34:18.655Z,26.84
2023-03-31T00:35:18.689Z,25.85
2023-03-31T00:36:18.762Z,31.01
2023-03-31T00:37:18.787Z,30.90
2023-03-31T00:38:18.823Z,28.07
2023-03-31T00:39:18.889Z,26.52
2023-03-31T00:40:18.909Z,25.70
2023-03-31T00:41:18.945Z,28.85
2023-03-31T00:42:19.011Z,27.58
2023-03-31T00:43:19.059Z,26.02
2023-03-31T00:44:19.333Z,27.49
2023-03-31T00:45:19.132Z,25.91
2023-03-31T00:46:19.287Z,26.05
2023-03-31T00:47:19.206Z,27.05
2023-03-31T00:48:19.258Z,29.43
2023-03-31T00:49:19.302Z,27.14
2023-03-31T00:50:19.338Z,27.94
2023-03-31T00:51:19.392Z,29.42
2023-03-31T00:52:19.432Z,27.20
2023-03-31T00:53:19.479Z,28.86
2023-03-31T00:54:19.552Z,28.24
2023-03-31T00:55:19.588Z,29.08
2023-03-31T00:56:19.596Z,25.88
2023-03-31T00:57:19.694Z,28.39
2023-03-31T00:58:19.685Z,28.72
2023-03-31T00:59:19.764Z,28.55
2023-03-31T01:00:19.776Z,29.92
2023-03-31T01:01:19.875Z,30.87
2023-03-31T01:02:19.878Z,30.28
2023-03-31T01:03:19.909Z,29.02
2023-03-31T01:04:19.962Z,25.00
2023-03-31T01:05:20.005Z,30.29
2023-03-31T01:06:20.072Z,26.80
2023-03-31T01:07:20.087Z,26.55
2023-03-31T01:08:20.144Z,27.51
2023-03-31T01:09:20.175Z,28.69
2023-03-31T01:10:20.238Z,28.22
2023-03-31T01:11:20.264Z,25.57
2023-03-31T01:12:20.306Z,25.00
2023-03-31T01:13:20.346Z,27.67
2023-03-31T01:14:20.383Z,27.24
2023-03-31T01:15:20.446Z,28.63
2023-03-31T01:16:20.488Z,27.56
2023-03-31T01:17:20.627Z,29.91
2023-03-31T01:18:20.651Z,27.46
2023-03-31T01:19:20.638Z,27.24
2023-03-31T01:20:20.629Z,27.41
2023-03-31T01:21:20.657Z,29.20
2023-03-31T01:22:20.691Z,27.92
2023-03-31T01:23:20.740Z,27.17
2023-03-31T01:24:20.792Z,30.12
2023-03-31T01:25:20.828Z,28.34
2023-03-31T01:26:20.889Z,25.10
2023-03-31T01:27:20.910Z,26.90
2023-03-31T01:28:20.949Z,27.16
2023-03-31T01:29:20.991Z,25.89
2023-03-31T01:30:21.040Z,25.94
2023-03-31T01:31:21.157Z,26.90
2023-03-31T01:32:21.129Z,31.24
2023-03-31T01:33:21.170Z,29.83
2023-03-31T01:34:21.209Z,31.11
2023-03-31T01:35:21.254Z,29.36
2023-03-31T01:36:21.301Z,27.90
2023-03-31T01:37:21.340Z,27.14
2023-03-31T01:38:21.389Z,28.92
2023-03-31T01:39:21.427Z,28.07
2023-03-31T01:40:22.280Z,26.91
2023-03-31T01:41:21.525Z,26.81
2023-03-31T01:42:21.559Z,29.95
2023-03-31T01:43:21.618Z,30.43
2023-03-31T01:44:21.649Z,27.61
2023-03-31T01:45:21.703Z,29.35
2023-03-31T01:46:21.850Z,29.74
2023-03-31T01:47:21.810Z,29.43
2023-03-31T01:48:21.826Z,28.24
2023-03-31T01:49:21.877Z,29.32
2023-03-31T01:50:21.921Z,27.35
2023-03-31T01:51:21.969Z,30.87
2023-03-31T01:52:22.045Z,29.08
2023-03-31T01:53:22.060Z,30.84
2023-03-31T01:54:22.102Z,29.26
2023-03-31T01:55:22.134Z,28.27
2023-03-31T01:56:22.185Z,30.96
2023-03-31T01:57:22.273Z,29.52
2023-03-31T01:58:22.443Z,28.35
2023-03-31T01:59:22.335Z,29.99
2023-03-31T02:00:22.384Z,28.75
2023-03-31T02:01:22.499Z,28.12
2023-03-31T02:02:22.586Z,27.26
2023-03-31T02:03:22.760Z,28.11
2023-03-31T02:04:22.560Z,26.97
2023-03-31T02:05:22.605Z,27.62
2023-03-31T02:06:22.645Z,29.59
2023-03-31T02:07:22.692Z,30.71
2023-03-31T02:08:22.745Z,29.27
2023-03-31T02:09:22.797Z,30.27
2023-03-31T02:10:22.822Z,29.18
2023-03-31T02:11:22.891Z,30.65
2023-03-31T02:12:22.923Z,29.49
2023-03-31T02:13:22.968Z,29.25
2023-03-31T02:14:22.999Z,30.68
2023-03-31T02:15:23.051Z,32.11
2023-03-31T02:16:23.138Z,30.82
2023-03-31T02:17:23.186Z,30.12
2023-03-31T02:18:23.209Z,29.77
2023-03-31T02:19:23.266Z,28.82
2023-03-31T02:20:23.325Z,29.16
2023-03-31T02:21:23.344Z,27.53
2023-03-31T02:22:23.382Z,29.17
2023-03-31T02:23:23.435Z,29.91
2023-03-31T02:24:23.473Z,29.17
2023-03-31T02:25:23.520Z,28.16
2023-03-31T02:26:23.573Z,30.43
2023-03-31T02:27:23.633Z,29.45
2023-03-31T02:28:23.671Z,28.79
2023-03-31T02:29:23.726Z,26.83
2023-03-31T02:30:23.766Z,28.00
2023-03-31T02:31:23.882Z,28.96
2023-03-31T02:32:23.887Z,31.90
2023-03-31T02:33:23.894Z,28.75
2023-03-31T02:34:23.944Z,28.27
2023-03-31T02:35:24.047Z,27.34
2023-03-31T02:36:24.035Z,30.59
2023-03-31T02:37:24.098Z,28.18
2023-03-31T02:38:24.188Z,30.73
2023-03-31T02:39:24.186Z,26.21
2023-03-31T02:40:24.229Z,31.98
2023-03-31T02:41:24.280Z,30.84
2023-03-31T02:42:24.339Z,29.68
2023-03-31T02:43:24.392Z,30.77
2023-03-31T02:44:24.443Z,31.09
2023-03-31T02:45:24.497Z,28.93
2023-03-31T02:46:24.579Z,30.35
2023-03-31T02:47:24.611Z,29.44
2023-03-31T02:48:24.649Z,30.77
2023-03-31T02:49:24.696Z,29.44
2023-03-31T02:50:24.749Z,27.80
2023-03-31T02:51:24.836Z,28.51
2023-03-31T02:52:24.849Z,28.65
2023-03-31T02:53:24.894Z,28.55
2023-03-31T02:54:24.949Z,29.83
2023-03-31T02:55:24.995Z,28.57
2023-03-31T02:56:25.060Z,27.15
2023-03-31T02:57:25.186Z,28.77
2023-03-31T02:58:25.151Z,30.26
2023-03-31T02:59:25.240Z,28.18
2023-03-31T03:00:25.239Z,26.38
2023-03-31T03:01:25.348Z,25.46
2023-03-31T03:02:25.452Z,28.65
2023-03-31T03:03:25.451Z,29.06
2023-03-31T03:04:25.421Z,29.13
2023-03-31T03:05:25.465Z,28.52
2023-03-31T03:06:25.517Z,28.42
2023-03-31T03:07:25.585Z,28.95
2023-03-31T03:08:25.614Z,26.28
2023-03-31T03:09:25.661Z,27.50
2023-03-31T03:10:25.716Z,27.10
2023-03-31T03:11:25.749Z,28.62
2023-03-31T03:12:25.797Z,28.99
2023-03-31T03:13:25.855Z,29.90
2023-03-31T03:14:25.923Z,31.38
2023-03-31T03:15:25.957Z,30.01
2023-03-31T03:16:26.044Z,27.63
2023-03-31T03:17:26.092Z,30.03
2023-03-31T03:18:26.112Z,30.99
2023-03-31T03:19:26.173Z,30.89
2023-03-31T03:20:26.245Z,28.70
2023-03-31T03:21:26.279Z,27.83
2023-03-31T03:22:26.313Z,26.88
2023-03-31T03:23:26.378Z,27.02
2023-03-31T03:24:26.426Z,28.22
2023-03-31T03:25:26.475Z,26.54
2023-03-31T03:26:26.506Z,29.01
2023-03-31T03:27:26.554Z,26.99
2023-03-31T03:28:26.607Z,31.92
2023-03-31T03:29:26.653Z,27.79
2023-03-31T03:30:26.696Z,30.99
2023-03-31T03:31:26.823Z,30.40
2023-03-31T03:32:26.798Z,30.92
2023-03-31T03:33:26.851Z,30.04
2023-03-31T03:34:26.903Z,30.21
2023-03-31T03:35:26.949Z,31.60
2023-03-31T03:36:27.080Z,28.88
2023-03-31T03:37:27.063Z,32.15
2023-03-31T03:38:27.108Z,28.32
2023-03-31T03:39:27.192Z,30.97
2023-03-31T03:40:27.222Z,29.16
2023-03-31T03:41:27.266Z,30.01
2023-03-31T03:42:27.311Z,29.63
2023-03-31T03:43:27.371Z,28.80
2023-03-31T03:44:27.420Z,30.27
2023-03-31T03:45:27.478Z,30.77
2023-03-31T03:46:27.585Z,29.00
2023-03-31T03:47:27.625Z,30.30
2023-03-31T03:48:27.628Z,29.49
2023-03-31T03:49:27.682Z,30.00
2023-03-31T03:50:27.726Z,30.50
2023-03-31T03:51:27.776Z,31.91
2023-03-31T03:52:27.839Z,31.20
2023-03-31T03:53:27.870Z,28.60
2023-03-31T03:54:27.921Z,30.25
2023-03-31T03:55:27.999Z,32.24
2023-03-31T03:56:28.027Z,28.97
2023-03-31T03:57:28.125Z,30.84
2023-03-31T03:58:28.125Z,27.37
2023-03-31T03:59:28.181Z,30.74
2023-03-31T04:00:28.220Z,30.76
2023-03-31T04:01:28.271Z,27.38
2023-03-31T04:02:28.353Z,27.98
2023-03-31T04:03:28.497Z,29.10
2023-03-31T04:04:28.429Z,30.40
2023-03-31T04:05:28.526Z,31.49
2023-03-31T04:06:28.540Z,31.63
2023-03-31T04:07:28.594Z,29.18
2023-03-31T04:08:28.642Z,33.78
2023-03-31T04:09:28.727Z,27.25
2023-03-31T04:10:28.752Z,28.98
2023-03-31T04:11:28.840Z,29.84
2023-03-31T04:12:28.869Z,30.10
2023-03-31T04:13:28.925Z,30.10
2023-03-31T04:14:28.995Z,28.55
2023-03-31T04:15:29.039Z,29.88
2023-03-31T04:16:29.385Z,30.35
2023-03-31T04:17:29.218Z,31.00
2023-03-31T04:18:29.202Z,30.03
2023-03-31T04:19:29.282Z,30.02
2023-03-31T04:20:29.316Z,28.17
2023-03-31T04:21:29.368Z,31.83
2023-03-31T04:22:29.521Z,28.64
2023-03-31T04:23:29.483Z,29.42
2023-03-31T04:24:29.541Z,29.04
2023-03-31T04:25:29.585Z,29.80
2023-03-31T04:26:29.642Z,26.05
2023-03-31T04:27:29.712Z,26.90
2023-03-31T04:28:29.756Z,27.26
2023-03-31T04:29:29.803Z,31.72
2023-03-31T04:30:29.855Z,31.87
2023-03-31T04:31:29.931Z,27.13
2023-03-31T04:32:29.977Z,28.84
2023-03-31T04:33:30.008Z,29.50
2023-03-31T04:34:30.062Z,29.40
2023-03-31T04:35:30.149Z,26.71
2023-03-31T04:36:30.175Z,28.23
2023-03-31T04:37:30.231Z,29.82
2023-03-31T04:38:30.832Z,27.86
2023-03-31T04:39:30.330Z,29.36
2023-03-31T04:40:30.409Z,28.37
2023-03-31T04:41:30.448Z,27.06
2023-03-31T04:42:30.498Z,28.18
2023-03-31T04:43:30.579Z,29.68
2023-03-31T04:44:30.605Z,28.80
2023-03-31T04:45:30.722Z,27.26
2023-03-31T04:46:30.743Z,31.62
2023-03-31T04:47:30.832Z,26.90
2023-03-31T04:48:30.806Z,31.02
2023-03-31T04:49:30.872Z,29.08
2023-03-31T04:50:30.916Z,29.39
2023-03-31T04:51:30.972Z,30.15
2023-03-31T04:52:31.033Z,29.58
2023-03-31T04:53:31.068Z,30.47
2023-03-31T04:54:31.118Z,30.33
2023-03-31T04:55:31.178Z,26.88
2023-03-31T04:56:31.233Z,31.25
2023-03-31T04:57:31.308Z,26.34
2023-03-31T04:58:31.337Z,29.16
2023-03-31T04:59:31.420Z,28.75
2023-03-31T05:00:31.438Z,28.96
2023-03-31T05:01:31.570Z,27.33
2023-03-31T05:02:31.635Z,30.26
2023-03-31T05:03:31.744Z,28.21
2023-03-31T05:04:31.662Z,28.79
2023-03-31T05:05:31.710Z,31.40
2023-03-31T05:06:31.770Z,33.39
2023-03-31T05:07:31.837Z,31.35
2023-03-31T05:08:31.896Z,30.64
2023-03-31T05:09:33.012Z,31.21
2023-03-31T05:10:31.933Z,35.46
2023-03-31T05:11:31.928Z,34.63
2023-03-31T05:12:31.933Z,33.19
2023-03-31T05:13:31.929Z,30.90
2023-03-31T05:14:31.910Z,29.36
2023-03-31T05:15:33.423Z,25.57
2023-03-31T05:16:31.959Z,25.95
2023-03-31T05:17:32.393Z,26.62
2023-03-31T05:18:31.892Z,27.47
2023-03-31T05:19:31.901Z,28.34
2023-03-31T05:20:31.874Z,34.36
2023-03-31T05:21:31.881Z,33.24
2023-03-31T05:22:32.388Z,31.41
2023-03-31T05:23:31.840Z,34.81
2023-03-31T05:24:31.843Z,36.10
2023-03-31T05:25:31.859Z,38.78
2023-03-31T05:26:31.842Z,35.79
2023-03-31T05:27:31.830Z,41.04
2023-03-31T05:28:32.573Z,38.96
2023-03-31T05:29:31.799Z,40.06
2023-03-31T05:30:31.816Z,43.14
2023-03-31T05:31:31.840Z,40.89
2023-03-31T05:32:31.883Z,41.01
2023-03-31T05:33:31.890Z,42.91
2023-03-31T05:34:31.784Z,45.21
2023-03-31T05:35:31.785Z,46.06
2023-03-31T05:36:31.869Z,48.17
2023-03-31T05:37:31.794Z,51.84
2023-03-31T05:38:31.903Z,52.45
2023-03-31T05:39:31.830Z,52.62
2023-03-31T05:40:31.869Z,54.40
2023-03-31T05:41:32.362Z,57.59
2023-03-31T05:42:31.963Z,229.29
2023-03-31T05:43:31.962Z,177.23
2023-03-31T05:44:32.394Z,117.90
2023-03-31T05:45:32.023Z,110.85
2023-03-31T05:46:32.093Z,103.70
2023-03-31T05:47:32.130Z,98.76
2023-03-31T05:48:32.823Z,96.32
2023-03-31T05:49:32.391Z,95.64
2023-03-31T05:50:32.132Z,91.31
2023-03-31T05:51:32.160Z,93.27
2023-03-31T05:52:32.182Z,91.95
2023-03-31T05:53:32.386Z,89.01
2023-03-31T05:54:32.404Z,87.32
2023-03-31T05:55:33.719Z,87.96
2023-03-31T05:56:33.114Z,86.39
2023-03-31T05:57:32.393Z,86.38
2023-03-31T05:58:32.420Z,84.62
2023-03-31T05:59:32.459Z,85.12
2023-03-31T06:00:39.773Z,81.88
2023-03-31T06:01:32.741Z,82.26
2023-03-31T06:02:32.481Z,83.15
2023-03-31T06:03:32.791Z,83.48
2023-03-31T06:04:32.393Z,84.11
2023-03-31T06:05:32.381Z,85.45
2023-03-31T06:06:32.347Z,83.38
2023-03-31T06:07:32.338Z,81.38
2023-03-31T06:08:32.365Z,82.91
2023-03-31T06:09:32.322Z,83.13
2023-03-31T06:10:33.333Z,82.41
2023-03-31T06:11:32.323Z,81.22
2023-03-31T06:12:32.323Z,78.94
2023-03-31T06:13:32.371Z,79.44
2023-03-31T06:14:32.290Z,80.21
2023-03-31T06:15:32.287Z,80.54
2023-03-31T06:16:32.279Z,80.38
2023-03-31T06:17:32.910Z,77.47
2023-03-31T06:18:32.376Z,79.02
2023-03-31T06:19:32.318Z,74.35
2023-03-31T06:20:32.413Z,76.98
2023-03-31T06:21:32.246Z,74.69
2023-03-31T06:22:35.482Z,74.94
2023-03-31T06:23:32.369Z,75.11
2023-03-31T06:24:32.297Z,75.12
2023-03-31T06:25:43.506Z,74.96
2023-03-31T06:26:32.506Z,75.39
2023-03-31T06:27:32.260Z,76.28
2023-03-31T06:28:32.387Z,75.71
2023-03-31T06:29:32.248Z,74.73
2023-03-31T06:30:32.251Z,75.63
2023-03-31T06:31:32.303Z,72.89
2023-03-31T06:32:32.227Z,73.82
2023-03-31T06:33:32.376Z,73.46
2023-03-31T06:34:32.208Z,71.71
2023-03-31T06:35:32.243Z,74.15
2023-03-31T06:36:32.186Z,70.16
2023-03-31T06:37:32.185Z,68.92
2023-03-31T06:38:32.389Z,67.24
2023-03-31T06:39:32.166Z,70.19
2023-03-31T06:40:32.649Z,68.60
2023-03-31T06:41:32.165Z,72.49
2023-03-31T06:42:32.153Z,66.59
2023-03-31T06:43:32.139Z,71.37
2023-03-31T06:44:32.129Z,67.41
2023-03-31T06:45:32.149Z,65.74
2023-03-31T06:46:32.158Z,68.40
2023-03-31T06:47:32.157Z,67.14
2023-03-31T06:48:32.381Z,65.78
2023-03-31T06:49:32.118Z,67.25
2023-03-31T06:50:32.107Z,66.41
2023-03-31T06:51:35.330Z,65.38
2023-03-31T06:52:32.083Z,65.53
2023-03-31T06:53:32.385Z,65.42
2023-03-31T06:54:32.070Z,66.16
2023-03-31T06:55:32.061Z,66.11
2023-03-31T06:56:32.100Z,67.84
2023-03-31T06:57:32.120Z,65.72
2023-03-31T06:58:32.387Z,65.19
2023-03-31T06:59:32.396Z,65.42
2023-03-31T07:00:32.034Z,63.90
2023-03-31T07:01:32.038Z,65.05
2023-03-31T07:02:32.112Z,62.37
2023-03-31T07:03:32.049Z,65.20
2023-03-31T07:04:32.415Z,62.29
2023-03-31T07:05:32.021Z,63.73
2023-03-31T07:06:31.999Z,65.30
2023-03-31T07:07:32.411Z,62.93
2023-03-31T07:08:32.384Z,61.68
2023-03-31T07:09:31.965Z,61.78
2023-03-31T07:10:31.957Z,62.25
2023-03-31T07:11:31.953Z,64.49
2023-03-31T07:12:31.951Z,63.98
2023-03-31T07:13:32.390Z,63.12
2023-03-31T07:14:31.938Z,62.43
2023-03-31T07:15:31.936Z,64.15
2023-03-31T07:16:31.949Z,60.80
2023-03-31T07:17:32.948Z,59.69
2023-03-31T07:18:34.822Z,62.78
2023-03-31T07:19:31.908Z,63.24
2023-03-31T07:20:31.910Z,63.36
2023-03-31T07:21:31.890Z,63.59
2023-03-31T07:22:31.881Z,64.04
2023-03-31T07:23:31.920Z,66.37
2023-03-31T07:24:31.864Z,60.96
2023-03-31T07:25:31.856Z,66.39
2023-03-31T07:26:31.852Z,61.20
2023-03-31T07:27:31.929Z,61.84
2023-03-31T07:28:31.912Z,63.49
2023-03-31T07:29:32.008Z,61.68
2023-03-31T07:30:31.844Z,59.45
2023-03-31T07:31:31.834Z,61.95
2023-03-31T07:32:31.858Z,61.97
2023-03-31T07:33:31.913Z,61.99
2023-03-31T07:34:31.803Z,61.42
2023-03-31T07:35:31.849Z,63.53
2023-03-31T07:36:31.806Z,61.42
2023-03-31T07:37:31.781Z,62.55
2023-03-31T07:38:31.913Z,63.54
2023-03-31T07:39:31.929Z,63.24
2023-03-31T07:40:31.902Z,60.57
2023-03-31T07:41:31.745Z,63.87
2023-03-31T07:42:31.775Z,62.27
2023-03-31T07:43:31.818Z,62.89
2023-03-31T07:44:31.931Z,61.97
2023-03-31T07:45:31.904Z,61.29
2023-03-31T07:46:31.943Z,61.10
2023-03-31T07:47:31.998Z,62.78
2023-03-31T07:48:32.004Z,60.03
2023-03-31T07:49:32.402Z,63.25
2023-03-31T07:50:32.085Z,61.86
2023-03-31T07:51:32.121Z,61.94
2023-03-31T07:52:32.160Z,64.19
2023-03-31T07:53:32.345Z,63.07
2023-03-31T07:54:32.405Z,64.34
2023-03-31T07:55:32.430Z,74.91
2023-03-31T07:56:32.318Z,80.27
2023-03-31T07:57:32.383Z,78.35
2023-03-31T07:58:32.404Z,83.56
2023-03-31T07:59:32.351Z,87.33
2023-03-31T08:00:32.347Z,87.07
2023-03-31T08:01:32.357Z,89.70
2023-03-31T08:02:32.448Z,94.53
2023-03-31T08:03:32.491Z,95.01
2023-03-31T08:04:32.511Z,97.28
2023-03-31T08:05:32.355Z,105.21
2023-03-31T08:06:32.351Z,109.17
2023-03-31T08:07:32.374Z,113.41
2023-03-31T08:08:33.418Z,117.68
2023-03-31T08:09:32.928Z,122.37
2023-03-31T08:10:32.473Z,127.86
2023-03-31T08:11:32.943Z,129.47
2023-03-31T08:12:32.920Z,127.40
2023-03-31T08:13:32.511Z,130.57
2023-03-31T08:14:40.778Z,132.55
2023-03-31T08:15:32.511Z,132.89
2023-03-31T08:16:32.546Z,133.30
2023-03-31T08:17:32.571Z,133.81
2023-03-31T08:18:32.483Z,132.88
2023-03-31T08:19:32.481Z,114.54
2023-03-31T08:20:32.473Z,96.35
2023-03-31T08:21:32.928Z,87.36
2023-03-31T08:22:32.457Z,89.37
2023-03-31T08:23:32.484Z,90.25
2023-03-31T08:24:32.452Z,80.37
2023-03-31T08:25:32.436Z,77.81
2023-03-31T08:26:32.948Z,79.74
2023-03-31T08:27:32.449Z,77.79
2023-03-31T08:28:32.501Z,76.65
2023-03-31T08:29:32.407Z,77.51
2023-03-31T08:30:32.410Z,59.69
2023-03-31T08:31:32.441Z,50.10
2023-03-31T08:32:32.479Z,31.24
2023-03-31T08:33:32.398Z,25.00
2023-03-31T08:34:32.377Z,24.58
2023-03-31T08:35:32.410Z,26.09
2023-03-31T08:36:32.364Z,32.18
2023-03-31T08:37:32.445Z,38.68
2023-03-31T08:38:32.847Z,49.95
2023-03-31T08:39:32.337Z,46.77
2023-03-31T08:40:32.337Z,35.75
2023-03-31T08:41:32.355Z,30.84
2023-03-31T08:42:32.425Z,30.63
2023-03-31T08:43:32.333Z,29.22
2023-03-31T08:44:32.311Z,29.78
2023-03-31T08:45:32.458Z,29.50
2023-03-31T08:46:32.369Z,28.35
2023-03-31T08:47:32.431Z,27.04
2023-03-31T08:48:32.271Z,27.24
2023-03-31T08:49:32.302Z,26.61
2023-03-31T08:50:32.262Z,26.81
2023-03-31T08:51:32.258Z,31.43
2023-03-31T08:52:32.424Z,29.29
2023-03-31T08:53:32.833Z,27.21
2023-03-31T08:54:32.238Z,26.64
2023-03-31T08:55:32.346Z,27.84
2023-03-31T08:56:32.214Z,28.21
2023-03-31T08:57:32.453Z,32.01
2023-03-31T08:58:32.199Z,29.43
2023-03-31T08:59:32.500Z,29.38
2023-03-31T09:00:33.210Z,28.89
2023-03-31T09:01:35.892Z,28.45
2023-03-31T09:02:32.556Z,28.70
2023-03-31T09:03:32.396Z,28.62
2023-03-31T09:04:32.211Z,28.88
2023-03-31T09:05:32.206Z,25.70
2023-03-31T09:06:32.434Z,25.18
2023-03-31T09:07:32.176Z,23.28
2023-03-31T09:08:32.168Z,25.97
2023-03-31T09:09:32.480Z,28.60
2023-03-31T09:10:32.155Z,30.83
2023-03-31T09:11:32.145Z,25.00
2023-03-31T09:12:32.148Z,26.65
2023-03-31T09:13:32.431Z,29.18
2023-03-31T09:14:32.356Z,25.00
2023-03-31T09:15:32.185Z,28.80
2023-03-31T09:16:32.191Z,26.80
2023-03-31T09:17:32.107Z,26.83
2023-03-31T09:18:32.432Z,28.50
2023-03-31T09:19:32.128Z,29.13
2023-03-31T09:20:32.064Z,28.35
2023-03-31T09:21:32.088Z,25.85
2023-03-31T09:22:32.578Z,27.48
2023-03-31T09:23:32.085Z,26.38
2023-03-31T09:24:32.913Z,27.73
2023-03-31T09:25:32.048Z,25.00
2023-03-31T09:26:32.464Z,28.63
2023-03-31T09:27:32.026Z,31.74
2023-03-31T09:28:32.047Z,36.97
2023-03-31T09:29:32.442Z,37.00
2023-03-31T09:30:32.011Z,41.31
2023-03-31T09:31:32.093Z,41.68
2023-03-31T09:32:32.191Z,44.15
2023-03-31T09:33:32.140Z,45.56
2023-03-31T09:34:32.448Z,51.39
2023-03-31T09:35:32.012Z,55.97
2023-03-31T09:36:32.012Z,57.08
2023-03-31T09:37:32.450Z,62.21
2023-03-31T09:38:31.959Z,63.72
2023-03-31T09:39:31.987Z,67.33
2023-03-31T09:40:31.966Z,73.08
2023-03-31T09:41:33.790Z,66.07
2023-03-31T09:42:32.974Z,62.91
2023-03-31T09:43:31.950Z,59.36
2023-03-31T09:44:31.906Z,48.60
2023-03-31T09:45:31.904Z,47.40
2023-03-31T09:46:31.959Z,43.07
2023-03-31T09:47:32.030Z,40.51
2023-03-31T09:48:31.894Z,41.39
2023-03-31T09:49:31.980Z,39.28
2023-03-31T09:50:31.984Z,41.46
2023-03-31T09:51:31.852Z,50.68
2023-03-31T09:52:31.865Z,57.01
2023-03-31T09:53:31.848Z,63.94
2023-03-31T09:54:31.951Z,66.27
2023-03-31T09:55:39.748Z,70.56
2023-03-31T09:56:31.822Z,70.93
2023-03-31T09:57:33.844Z,71.56
2023-03-31T09:58:31.823Z,71.00
2023-03-31T09:59:31.852Z,72.15
2023-03-31T10:00:31.807Z,74.52
2023-03-31T10:01:31.862Z,77.43
2023-03-31T10:02:31.819Z,79.72
2023-03-31T10:03:31.823Z,80.53
2023-03-31T10:04:31.853Z,76.04
2023-03-31T10:05:31.960Z,69.55
2023-03-31T10:06:31.770Z,68.09
2023-03-31T10:07:31.788Z,66.81
2023-03-31T10:08:31.775Z,63.83
2023-03-31T10:09:31.741Z,65.38
2023-03-31T10:10:31.959Z,68.20
2023-03-31T10:11:31.729Z,63.16
2023-03-31T10:12:31.721Z,65.86
2023-03-31T10:13:31.729Z,68.48
2023-03-31T10:14:32.010Z,66.28
2023-03-31T10:15:31.732Z,49.08
2023-03-31T10:16:32.008Z,18.39
2023-03-31T10:17:38.015Z,36.06
2023-03-31T10:18:31.737Z,36.18
2023-03-31T10:19:31.706Z,19.75
2023-03-31T10:20:31.964Z,20.61
2023-03-31T10:21:31.664Z,3.02
2023-03-31T10:22:31.657Z,0.00
2023-03-31T10:23:31.656Z,11.47
2023-03-31T10:24:31.653Z,22.06
2023-03-31T10:25:31.963Z,20.99
2023-03-31T10:26:31.968Z,25.00
2023-03-31T10:27:31.622Z,24.24
2023-03-31T10:28:32.603Z,30.94
2023-03-31T10:29:31.605Z,33.57
2023-03-31T10:30:32.001Z,38.04
2023-03-31T10:31:31.610Z,38.98
2023-03-31T10:32:31.682Z,37.70
2023-03-31T10:33:31.576Z,25.49
2023-03-31T10:34:31.588Z,36.27
2023-03-31T10:35:32.053Z,48.21
2023-03-31T10:36:31.546Z,44.73
2023-03-31T10:37:31.552Z,50.33
2023-03-31T10:38:31.535Z,50.13
2023-03-31T10:39:31.966Z,54.19
2023-03-31T10:40:31.574Z,55.46
2023-03-31T10:41:31.555Z,54.62
2023-03-31T10:42:31.602Z,84.57
2023-03-31T10:43:31.645Z,98.25
2023-03-31T10:44:31.645Z,98.63
2023-03-31T10:45:37.723Z,92.36
2023-03-31T10:46:31.678Z,91.31
2023-03-31T10:47:31.681Z,86.45
2023-03-31T10:48:31.643Z,82.88
2023-03-31T10:49:31.707Z,77.25
2023-03-31T10:50:31.977Z,73.68
2023-03-31T10:51:31.646Z,73.20
2023-03-31T10:52:31.611Z,73.82
2023-03-31T10:53:31.615Z,74.82
2023-03-31T10:54:31.611Z,76.60
2023-03-31T10:55:31.969Z,78.76
2023-03-31T10:56:31.592Z,80.80
2023-03-31T10:57:31.591Z,80.34
2023-03-31T10:58:31.583Z,81.11
2023-03-31T10:59:31.578Z,92.45
2023-03-31T11:00:31.968Z,93.49
2023-03-31T11:01:31.578Z,92.64
2023-03-31T11:02:31.706Z,87.59
2023-03-31T11:03:31.596Z,90.86
2023-03-31T11:04:31.531Z,85.15
2023-03-31T11:05:32.018Z,81.70
2023-03-31T11:06:31.968Z,82.88
2023-03-31T11:07:31.541Z,79.34
2023-03-31T11:08:31.509Z,79.17
2023-03-31T11:09:31.498Z,78.62
2023-03-31T11:10:31.493Z,80.60
2023-03-31T11:11:32.016Z,84.85
2023-03-31T11:12:31.509Z,87.79
2023-03-31T11:13:31.508Z,85.10
2023-03-31T11:14:31.486Z,87.08
2023-03-31T11:15:31.518Z,86.95
2023-03-31T11:16:31.535Z,79.27
2023-03-31T11:17:31.899Z,72.99
2023-03-31T11:18:31.448Z,71.49
2023-03-31T11:19:31.428Z,68.56
2023-03-31T11:20:31.422Z,69.82
2023-03-31T11:21:31.469Z,69.93
2023-03-31T11:22:31.424Z,74.66
2023-03-31T11:23:31.428Z,73.54
2023-03-31T11:24:31.394Z,72.11
2023-03-31T11:25:31.386Z,69.45
2023-03-31T11:26:31.472Z,70.79
2023-03-31T11:27:31.403Z,68.80
2023-03-31T11:28:31.379Z,68.54
2023-03-31T11:29:31.433Z,67.51
2023-03-31T11:30:31.976Z,68.93
2023-03-31T11:31:31.571Z,65.17
2023-03-31T11:32:31.841Z,61.80
2023-03-31T11:33:31.978Z,65.48
2023-03-31T11:34:31.703Z,65.50
2023-03-31T11:35:31.765Z,69.93
2023-03-31T11:36:31.797Z,68.20
2023-03-31T11:37:31.922Z,71.35
2023-03-31T11:38:31.895Z,74.79
2023-03-31T11:39:31.981Z,79.35
2023-03-31T11:40:32.022Z,83.16
2023-03-31T11:41:32.089Z,83.38
2023-03-31T11:42:32.135Z,88.22
2023-03-31T11:43:32.200Z,92.58
2023-03-31T11:44:32.257Z,93.11
2023-03-31T11:45:32.328Z,91.25
2023-03-31T11:46:32.531Z,92.33
2023-03-31T11:47:32.461Z,93.58
2023-03-31T11:48:32.498Z,96.23
2023-03-31T11:49:32.549Z,98.34
2023-03-31T11:50:32.616Z,102.84
2023-03-31T11:51:32.683Z,101.30
2023-03-31T11:52:32.749Z,101.72
2023-03-31T11:53:32.804Z,101.04
2023-03-31T11:54:32.858Z,98.55
2023-03-31T11:55:32.974Z,100.62
2023-03-31T11:56:33.025Z,96.64
2023-03-31T11:57:33.187Z,96.88
2023-03-31T11:58:33.115Z,98.15
2023-03-31T11:59:33.189Z,94.48
2023-03-31T12:00:33.216Z,91.46
2023-03-31T12:01:33.268Z,87.75
2023-03-31T12:02:33.340Z,81.58
2023-03-31T12:03:33.431Z,90.03
2023-03-31T12:04:33.426Z,87.73
2023-03-31T12:05:33.517Z,87.33
2023-03-31T12:06:33.985Z,95.65
2023-03-31T12:07:33.622Z,95.54
2023-03-31T12:08:33.686Z,96.47
2023-03-31T12:09:33.738Z,122.89
2023-03-31T12:10:33.799Z,109.02
2023-03-31T12:11:34.026Z,52.35
2023-03-31T12:12:33.854Z,35.18
2023-03-31T12:13:33.928Z,45.26
2023-03-31T12:14:33.925Z,38.41
2023-03-31T12:15:33.994Z,26.47
2023-03-31T12:16:34.046Z,33.79
2023-03-31T12:17:34.552Z,20.49
2023-03-31T12:18:34.080Z,34.40
2023-03-31T12:19:34.082Z,43.36
2023-03-31T12:20:34.109Z,51.00
2023-03-31T12:21:34.135Z,59.14
2023-03-31T12:22:34.154Z,68.84
2023-03-31T12:23:34.149Z,75.62
2023-03-31T12:24:34.161Z,90.05
2023-03-31T12:25:34.186Z,118.17
2023-03-31T12:26:34.226Z,128.03
2023-03-31T12:27:34.531Z,129.64
2023-03-31T12:28:34.273Z,132.35
2023-03-31T12:29:34.334Z,136.53
2023-03-31T12:30:34.372Z,136.80
2023-03-31T12:31:34.417Z,137.62
2023-03-31T12:32:34.513Z,138.27
2023-03-31T12:33:34.409Z,137.97
2023-03-31T12:34:34.417Z,138.01
2023-03-31T12:35:34.516Z,139.06
2023-03-31T12:36:34.430Z,141.19
2023-03-31T12:37:34.497Z,142.97
2023-03-31T12:38:34.618Z,141.62
2023-03-31T12:39:34.592Z,138.75
2023-03-31T12:40:34.794Z,139.22
2023-03-31T12:41:35.006Z,142.57
2023-03-31T12:42:34.735Z,142.23
2023-03-31T12:43:34.803Z,143.88
2023-03-31T12:44:34.813Z,145.71
2023-03-31T12:45:34.862Z,146.92
2023-03-31T12:46:38.259Z,147.92
2023-03-31T12:47:34.922Z,148.06
2023-03-31T12:48:34.864Z,148.24
2023-03-31T12:49:34.858Z,144.38
2023-03-31T12:50:34.855Z,143.42
2023-03-31T12:51:34.851Z,154.67